createdAt,value
2022-07-29T00:42:47.631Z,3.33
2022-07-29T00:45:15.191Z,3.10
2022-07-29T00:47:42.514Z,3.08
2022-07-29T00:50:11.484Z,2.90
2022-07-29T00:52:39.609Z,2.90
2022-07-29T00:55:31.485Z,3.00
2022-07-29T00:57:59.709Z,2.90
2022-07-29T01:00:29.869Z,2.70
2022-07-29T01:02:56.628Z,2.87
2022-07-29T01:05:25.699Z,2.85
2022-07-29T01:25:53.183Z,2.72
2022-07-29T01:28:37.715Z,2.90
2022-07-29T01:34:00.256Z,3.65
2022-07-29T01:36:33.403Z,3.12
2022-07-29T01:39:22.978Z,3.08
2022-07-29T01:41:57.906Z,2.95
2022-07-29T01:44:34.024Z,3.30
2022-07-29T01:51:08.694Z,3.28
2022-07-29T02:11:11.125Z,3.45
2022-07-29T02:13:38.509Z,3.28
2022-07-29T02:16:08.319Z,3.20
2022-07-29T02:18:38.582Z,2.97
2022-07-29T02:25:14.175Z,3.75
2022-07-29T02:27:43.530Z,3.72
2022-07-29T02:30:11.763Z,3.37
2022-07-29T03:54:54.105Z,3.47
2022-07-29T03:57:25.953Z,3.30
2022-07-29T03:59:53.349Z,3.15
2022-07-29T04:05:01.955Z,3.50
2022-07-29T04:07:28.803Z,3.47
2022-07-29T05:00:33.361Z,3.42
2022-07-29T05:03:00.604Z,3.92
2022-07-29T05:05:27.271Z,3.45
2022-07-29T05:07:54.213Z,3.30
2022-07-29T06:27:12.329Z,3.60
2022-07-29T06:32:27.369Z,3.75
2022-07-29T06:35:06.910Z,3.80
2022-07-29T06:38:42.068Z,3.75
2022-07-29T08:00:50.881Z,3.75
2022-07-29T08:03:17.740Z,4.12
2022-07-29T08:06:03.785Z,4.40
2022-07-29T08:08:30.622Z,4.10
2022-07-29T08:30:02.254Z,3.80
2022-07-29T08:32:51.235Z,3.97
2022-07-29T10:00:08.245Z,2.75
2022-07-29T10:02:36.614Z,2.55
2022-07-29T10:09:07.694Z,3.00
2022-07-29T10:11:48.137Z,2.42
2022-07-29T10:16:47.060Z,3.12
2022-07-29T10:19:14.854Z,2.28
2022-07-29T10:21:44.271Z,2.67
2022-07-29T10:24:36.333Z,2.53
2022-07-29T12:55:52.609Z,2.80
2022-07-29T13:18:40.967Z,2.70
2022-07-29T13:21:15.423Z,2.40
2022-07-29T13:23:46.311Z,2.72
2022-07-29T13:26:15.272Z,2.40
2022-07-29T13:47:49.377Z,2.55
2022-07-29T13:51:02.332Z,2.60
2022-07-29T13:53:32.457Z,2.20
2022-07-29T13:55:59.522Z,2.62
2022-07-29T13:58:31.497Z,2.55
2022-07-29T14:00:58.283Z,2.80
2022-07-29T14:03:25.565Z,2.40
2022-07-29T14:09:54.621Z,2.70
2022-07-29T14:12:22.281Z,2.45
2022-07-29T15:11:07.673Z,2.40
2022-07-29T15:13:34.973Z,2.67
2022-07-29T15:20:12.781Z,2.80
2022-07-29T15:22:46.754Z,2.65
2022-07-29T15:25:13.565Z,2.62
2022-07-29T15:27:43.385Z,2.72
2022-07-29T15:30:31.516Z,2.72
2022-07-29T15:33:04.441Z,2.83
2022-07-29T15:35:56.896Z,2.47
2022-07-29T15:38:29.275Z,2.25
2022-07-29T15:40:56.138Z,2.50
2022-07-29T15:43:23.727Z,2.70
2022-07-29T15:46:11.885Z,2.58
2022-07-29T15:48:40.350Z,2.70
2022-07-29T15:55:24.602Z,2.80
2022-07-29T15:57:51.755Z,2.67
2022-07-29T16:00:18.759Z,2.40
2022-07-29T16:02:45.778Z,2.60
2022-07-29T16:05:12.825Z,2.90
2022-07-29T16:07:39.534Z,2.92
2022-07-29T16:10:37.143Z,2.25
2022-07-29T16:13:03.899Z,2.60
2022-07-29T16:15:30.954Z,2.53
2022-07-29T16:17:57.981Z,2.60
2022-07-29T16:20:26.887Z,2.58
2022-07-29T16:22:54.085Z,2.58
2022-07-29T18:14:18.729Z,3.10
2022-07-29T19:08:01.660Z,5.70
2022-07-29T19:10:28.677Z,5.70
2022-07-29T19:12:56.823Z,5.97
2022-07-29T19:15:23.756Z,6.22
2022-07-29T19:21:47.525Z,6.97
2022-07-29T19:24:15.754Z,5.45
2022-07-29T19:26:46.806Z,4.47
2022-07-29T19:29:15.016Z,3.30
2022-07-29T19:31:43.265Z,3.45
2022-07-29T19:34:10.139Z,3.30
2022-07-29T19:37:04.475Z,3.10
2022-07-29T19:39:35.182Z,3.12
2022-07-29T19:42:03.558Z,3.40
2022-07-29T19:44:33.319Z,2.90
2022-07-29T20:36:28.792Z,2.72
2022-07-29T20:38:56.041Z,3.03
2022-07-29T20:41:30.467Z,3.05
2022-07-29T20:43:57.146Z,3.15
2022-07-29T20:46:23.860Z,3.35
2022-07-29T20:48:50.603Z,3.03
2022-07-29T20:51:17.258Z,3.33
2022-07-29T20:53:43.883Z,3.58
2022-07-29T20:56:12.399Z,3.00
2022-07-29T20:58:40.737Z,3.30
2022-07-29T21:01:57.594Z,3.37
2022-07-29T21:05:06.051Z,3.45
2022-07-29T21:53:03.300Z,3.37
2022-07-29T21:55:40.606Z,3.20
2022-07-29T21:58:07.583Z,3.10
2022-07-29T22:00:34.280Z,3.10
2022-07-29T22:03:02.306Z,3.37
2022-07-29T22:05:30.352Z,3.12
2022-07-29T22:07:58.058Z,3.22
2022-07-29T22:10:55.648Z,3.28
2022-07-29T22:13:46.752Z,3.22
2022-07-29T22:16:17.439Z,3.10
2022-07-29T22:18:48.311Z,3.15
2022-07-29T22:21:19.050Z,3.20
2022-07-29T22:23:45.825Z,3.45
2022-07-29T22:26:13.663Z,3.35
2022-07-29T22:28:50.332Z,3.28
2022-07-29T22:31:17.048Z,4.10
2022-07-29T22:33:43.801Z,3.40
2022-07-29T22:36:10.594Z,3.17
2022-07-29T22:38:37.361Z,3.80
2022-07-29T22:41:04.120Z,3.50
2022-07-29T22:43:50.126Z,3.15
2022-07-29T22:49:57.403Z,3.40
2022-07-29T22:52:24.097Z,3.70
2022-07-29T22:54:50.793Z,3.55
2022-07-29T22:57:17.492Z,3.50
2022-07-29T22:59:44.145Z,3.60
2022-07-29T23:02:10.826Z,3.62
2022-07-29T23:04:56.426Z,3.90
2022-07-29T23:07:23.304Z,3.58
2022-07-29T23:09:50.004Z,3.70
2022-07-29T23:12:16.642Z,3.50
2022-07-29T23:14:43.994Z,4.00
2022-07-29T23:17:10.691Z,3.50
2022-07-29T23:23:32.368Z,3.55
2022-07-29T23:26:01.503Z,4.00
2022-07-29T23:28:28.128Z,4.30
2022-07-29T23:30:54.764Z,4.12
2022-07-29T23:33:21.445Z,3.67
2022-07-29T23:35:48.074Z,3.37
2022-07-29T23:38:33.718Z,3.70
2022-07-29T23:41:01.654Z,4.05
2022-07-29T23:43:28.869Z,3.95
2022-07-29T23:45:56.119Z,4.10
2022-07-29T23:48:24.873Z,3.60
2022-07-29T23:50:51.745Z,3.90
2022-07-29T23:53:55.914Z,4.37
2022-07-29T23:56:54.058Z,4.10
2022-07-29T23:59:20.762Z,4.30
